Time;durP1;ratioP1;P1;durP2;ratioP2;P2;SDS_P1;SDS_P2;PMS_P1;PMS_P2;Temp;Humidity;BMP_temperature;BMP_pressure;BME280_temperature;BME280_humidity;BME280_pressure;Samples;Min_cycle;Max_cycle;Signal;HPM_P1;HPM_P2
2022/10/21 00:00:33;;;;;;;;;;;;;;;;;;10542181;28;19977;-70
2022/10/21 00:05:35;;;;;;;;;;;;;;;;;;10574389;28;19924;-70
2022/10/21 00:10:37;;;;;;;;;;;;;;;;;;10540278;28;19994;-69
2022/10/21 00:15:39;;;;;;;;;;;;;;;;;;10541055;28;19928;-69
2022/10/21 00:20:41;;;;;;;;;;;;;;;;;;10541487;28;19977;-69
2022/10/21 00:25:43;;;;;;;;;;;;;;;;;;10573911;28;20320;-69
2022/10/21 00:30:45;;;;;;;;;;;;;;;;;;10547371;28;19977;-69
2022/10/21 00:35:47;;;;;;;;;;;;;;;;;;10540423;28;20329;-69
2022/10/21 00:40:49;;;;;;;;;;;;;;;;;;10582357;28;19980;-69
2022/10/21 00:45:51;;;;;;;;;;;;;;;;;;10503451;28;19924;-70
2022/10/21 00:50:53;;;;;;;;;;;;;;;;;;10567722;28;20294;-69
2022/10/21 00:55:55;;;;;;;;;;;;;;;;;;10586090;28;20328;-69
2022/10/21 01:00:57;;;;;;;;;;;;;;;;;;10590526;28;19924;-69
2022/10/21 01:05:59;;;;;;;;;;;;;;;;;;10588456;28;19928;-70
2022/10/21 01:11:01;;;;;;;;;;;;;;;;;;10552456;28;19970;-70
2022/10/21 01:16:03;;;;;;;;;;;;;;;;;;10548168;28;19931;-69
2022/10/21 01:21:05;;;;;;;;;;;;;;;;;;10550619;28;19953;-69
2022/10/21 01:26:07;;;;;;;;;;;;;;;;;;10560265;28;19924;-69
2022/10/21 01:31:09;;;;;;;;;;;;;;;;;;10510099;28;19929;-70
2022/10/21 01:36:12;;;;;;;;;;;;;;;;;;10505930;28;19924;-70
2022/10/21 01:41:14;;;;;;;;;;;;;;;;;;10517376;28;19924;-70
2022/10/21 01:46:16;;;;;;;;;;;;;;;;;;10589067;28;20387;-70
2022/10/21 01:51:18;;;;;;;;;;;;;;;;;;10512777;28;19925;-69
2022/10/21 01:56:20;;;;;;;;;;;;;;;;;;10504595;28;19935;-69
2022/10/21 02:01:22;;;;;;;;;;;;;;;;;;10505004;28;19978;-67
2022/10/21 02:06:24;;;;;;;;;;;;;;;;;;10503235;28;19925;-69
2022/10/21 02:11:26;;;;;;;;;;;;;;;;;;10543062;28;20398;-70
2022/10/21 02:16:28;;;;;;;;;;;;;;;;;;10547224;22;19970;-68
2022/10/21 02:21:30;;;;;;;;;;;;;;;;;;10503499;28;19924;-68
2022/10/21 02:26:33;;;;;;;;;;;;;;;;;;10503025;28;19970;-68
2022/10/21 02:31:35;;;;;;;;;;;;;;;;;;10501399;28;20374;-68
2022/10/21 02:36:37;;;;;;;;;;;;;;;;;;10503116;28;20035;-67
2022/10/21 02:41:39;;;;;;;;;;;;;;;;;;10484994;28;19940;-68
2022/10/21 02:46:41;;;;;;;;;;;;;;;;;;10501705;28;20272;-67
2022/10/21 02:51:43;;;;;;;;;;;;;;;;;;10502234;28;19925;-67
2022/10/21 02:56:45;;;;;;;;;;;;;;;;;;10502284;28;19924;-67
2022/10/21 03:01:47;;;;;;;;;;;;;;;;;;10501742;28;19924;-68
2022/10/21 03:06:49;;;;;;;;;;;;;;;;;;10500756;28;20326;-68
2022/10/21 03:11:51;;;;;;;;;;;;;;;;;;10460597;28;19975;-68
2022/10/21 03:16:53;;;;;;;;;;;;;;;;;;10470169;28;19925;-67
2022/10/21 03:21:55;;;;;;;;;;;;;;;;;;10520954;28;20393;-68
2022/10/21 03:26:57;;;;;;;;;;;;;;;;;;10541794;28;20029;-68
2022/10/21 03:31:59;;;;;;;;;;;;;;;;;;10543344;28;19977;-68
2022/10/21 03:37:01;;;;;;;;;;;;;;;;;;10542143;28;19959;-68
2022/10/21 03:42:03;;;;;;;;;;;;;;;;;;10542968;28;19924;-68
2022/10/21 03:47:05;;;;;;;;;;;;;;;;;;10541967;28;19924;-68
2022/10/21 03:52:07;;;;;;;;;;;;;;;;;;10541968;28;19924;-68
2022/10/21 03:57:09;;;;;;;;;;;;;;;;;;10541405;28;19924;-68
2022/10/21 04:02:11;;;;;;;;;;;;;;;;;;10541586;28;20348;-68
2022/10/21 04:07:13;;;;;;;;;;;;;;;;;;10539572;28;19924;-68
2022/10/21 04:12:15;;;;;;;;;;;;;;;;;;10541349;28;20332;-68
2022/10/21 04:17:17;;;;;;;;;;;;;;;;;;10541409;28;19977;-68
2022/10/21 04:22:19;;;;;;;;;;;;;;;;;;10540543;28;19969;-68
2022/10/21 04:27:21;;;;;;;;;;;;;;;;;;10539938;28;20390;-68
2022/10/21 04:32:23;;;;;;;;;;;;;;;;;;10540176;28;19924;-68
2022/10/21 04:37:25;;;;;;;;;;;;;;;;;;10540132;28;19924;-68
2022/10/21 04:42:27;;;;;;;;;;;;;;;;;;10539656;28;20036;-68
2022/10/21 04:47:30;;;;;;;;;;;;;;;;;;10538261;28;19977;-68
2022/10/21 04:52:32;;;;;;;;;;;;;;;;;;10538798;28;19981;-68
2022/10/21 04:57:34;;;;;;;;;;;;;;;;;;10540016;28;19985;-68
2022/10/21 05:02:36;;;;;;;;;;;;;;;;;;10545437;28;19931;-67
2022/10/21 05:07:38;;;;;;;;;;;;;;;;;;10549073;28;19924;-68
2022/10/21 05:12:40;;;;;;;;;;;;;;;;;;10539550;28;19924;-68
2022/10/21 05:17:42;;;;;;;;;;;;;;;;;;10537885;28;19978;-68
2022/10/21 05:22:44;;;;;;;;;;;;;;;;;;10537150;28;19928;-68
2022/10/21 05:27:46;;;;;;;;;;;;;;;;;;10529094;28;19925;-68
2022/10/21 05:32:49;;;;;;;;;;;;;;;;;;10521774;28;20013;-68
2022/10/21 05:37:51;;;;;;;;;;;;;;;;;;10542134;28;20405;-68
2022/10/21 05:42:53;;;;;;;;;;;;;;;;;;10539737;28;19928;-68
2022/10/21 05:47:55;;;;;;;;;;;;;;;;;;10514492;28;20009;-68
2022/10/21 05:52:57;;;;;;;;;;;;;;;;;;10542355;28;19924;-68
2022/10/21 05:57:59;;;;;;;;;;;;;;;;;;10546836;28;19970;-68
2022/10/21 06:03:01;;;;;;;;;;;;;;;;;;10544562;28;19928;-68
2022/10/21 06:08:03;;;;;;;;;;;;;;;;;;10553654;28;19924;-68
2022/10/21 06:13:05;;;;;;;;;;;;;;;;;;10538238;28;20386;-68
2022/10/21 06:18:07;;;;;;;;;;;;;;;;;;10545958;28;19950;-68
2022/10/21 06:23:11;;;;;;;;;;;;;;;;;;10537835;28;19924;-68
2022/10/21 06:28:13;;;;;;;;;;;;;;;;;;10541279;28;19959;-68
2022/10/21 06:33:15;;;;;;;;;;;;;;;;;;10545632;28;19925;-68
2022/10/21 06:38:17;;;;;;;;;;;;;;;;;;10541255;28;20341;-68
2022/10/21 06:43:19;;;;;;;;;;;;;;;;;;10542423;28;19924;-68
2022/10/21 06:48:26;;;;;;;;;;;;;;;;;;10544098;28;19977;-68
2022/10/21 06:53:28;;;;;;;;;;;;;;;;;;10557018;28;20374;-68
2022/10/21 06:58:31;;;;;;;;;;;;;;;;;;10544166;28;20473;-68
2022/10/21 07:03:33;;;;;;;;;;;;;;;;;;10544604;28;19928;-68
2022/10/21 07:08:36;;;;;;;;;;;;;;;;;;10541721;28;20441;-68
2022/10/21 07:13:47;;;;;;;;;;;;;;;;;;10543777;28;19989;-68
2022/10/21 07:18:49;;;;;;;;;;;;;;;;;;10542334;28;19924;-68
2022/10/21 07:23:51;;;;;;;;;;;;;;;;;;10543106;28;20383;-68
2022/10/21 07:28:53;;;;;;;;;;;;;;;;;;10543506;28;19928;-68
2022/10/21 07:33:55;;;;;;;;;;;;;;;;;;10542370;28;19970;-69
2022/10/21 07:38:58;;;;;;;;;;;;;;;;;;10542328;28;19924;-69
2022/10/21 07:44:00;;;;;;;;;;;;;;;;;;10541868;28;19928;-68
2022/10/21 07:49:02;;;;;;;;;;;;;;;;;;10541260;28;20382;-68
2022/10/21 07:54:04;;;;;;;;;;;;;;;;;;10545598;28;19927;-69
2022/10/21 07:59:06;;;;;;;;;;;;;;;;;;10541655;28;19977;-68
2022/10/21 08:04:14;;;;;;;;;;;;;;;;;;10540995;28;20370;-69
2022/10/21 08:09:16;;;;;;;;;;;;;;;;;;10541392;28;19932;-68
2022/10/21 08:14:18;;;;;;;;;;;;;;;;;;10540324;28;19931;-69
2022/10/21 08:19:22;;;;;;;;;;;;;;;;;;10540494;28;19924;-68
2022/10/21 08:24:25;;;;;;;;;;;;;;;;;;10540796;28;19969;-69
2022/10/21 08:29:27;;;;;;;;;;;;;;;;;;10541351;28;19924;-69
2022/10/21 08:34:29;;;;;;;;;;;;;;;;;;10538824;28;19924;-68
2022/10/21 08:39:31;;;;;;;;;;;;;;;;;;10541114;28;19973;-69
2022/10/21 08:44:33;;;;;;;;;;;;;;;;;;10540920;28;19928;-69
2022/10/21 08:49:35;;;;;;;;;;;;;;;;;;10539172;28;19924;-69
2022/10/21 08:54:37;;;;;;;;;;;;;;;;;;10539121;28;19924;-69
2022/10/21 08:59:43;;;;;;;;;;;;;;;;;;10540667;28;19973;-69
2022/10/21 09:04:45;;;;;;;;;;;;;;;;;;10539887;28;19924;-69
2022/10/21 09:09:47;;;;;;;;;;;;;;;;;;10540369;28;19928;-69
2022/10/21 09:14:49;;;;;;;;;;;;;;;;;;10540608;28;19924;-69
2022/10/21 09:19:51;;;;;;;;;;;;;;;;;;10547126;28;19946;-69
2022/10/21 09:24:53;;;;;;;;;;;;;;;;;;10547571;28;19924;-69
2022/10/21 09:29:55;;;;;;;;;;;;;;;;;;10546260;28;19924;-69
2022/10/21 09:34:57;;;;;;;;;;;;;;;;;;10544044;28;19924;-69
2022/10/21 09:39:59;;;;;;;;;;;;;;;;;;10556979;28;19928;-69
2022/10/21 09:45:01;;;;;;;;;;;;;;;;;;10547779;28;20467;-69
2022/10/21 09:50:03;;;;;;;;;;;;;;;;;;10546186;28;19924;-69
2022/10/21 09:55:08;;;;;;;;;;;;;;;;;;10546607;28;20420;-69
2022/10/21 10:00:10;;;;;;;;;;;;;;;;;;10546774;28;20045;-69
2022/10/21 10:05:14;;;;;;;;;;;;;;;;;;10546234;28;20305;-69
2022/10/21 10:10:16;;;;;;;;;;;;;;;;;;10545358;28;19928;-68
2022/10/21 10:15:18;;;;;;;;;;;;;;;;;;10543737;28;20432;-69
2022/10/21 10:20:20;;;;;;;;;;;;;;;;;;10543905;28;19924;-69
2022/10/21 10:25:23;;;;;;;;;;;;;;;;;;10547833;28;19969;-70
2022/10/21 10:30:25;;;;;;;;;;;;;;;;;;10553127;28;19932;-70
2022/10/21 10:35:27;;;;;;;;;;;;;;;;;;10544860;28;19978;-71
2022/10/21 10:40:31;;;;;;;;;;;;;;;;;;10544501;28;20040;-70
2022/10/21 10:45:33;;;;;;;;;;;;;;;;;;10544051;28;19924;-70
2022/10/21 10:50:35;;;;;;;;;;;;;;;;;;10545202;28;19969;-70
2022/10/21 10:55:37;;;;;;;;;;;;;;;;;;10544049;28;19923;-70
2022/10/21 11:00:39;;;;;;;;;;;;;;;;;;10543990;28;19924;-69
2022/10/21 11:05:41;;;;;;;;;;;;;;;;;;10543529;28;19986;-69
2022/10/21 11:10:44;;;;;;;;;;;;;;;;;;10543726;28;20371;-69
2022/10/21 11:15:46;;;;;;;;;;;;;;;;;;10543334;28;19924;-69
2022/10/21 11:20:48;;;;;;;;;;;;;;;;;;10542374;28;19924;-69
2022/10/21 11:25:50;;;;;;;;;;;;;;;;;;10543873;28;19931;-69
2022/10/21 11:30:52;;;;;;;;;;;;;;;;;;10542072;28;20264;-69
2022/10/21 11:35:56;;;;;;;;;;;;;;;;;;10521430;28;19924;-69
2022/10/21 11:40:58;;;;;;;;;;;;;;;;;;10540671;28;19928;-70
2022/10/21 11:46:01;;;;;;;;;;;;;;;;;;10543091;28;19924;-70
2022/10/21 11:51:03;;;;;;;;;;;;;;;;;;10542818;28;19973;-70
2022/10/21 11:56:07;;;;;;;;;;;;;;;;;;10541278;28;19924;-70
2022/10/21 12:01:09;;;;;;;;;;;;;;;;;;10540662;28;19927;-70
2022/10/21 12:06:12;;;;;;;;;;;;;;;;;;10541497;28;19924;-70
2022/10/21 12:11:14;;;;;;;;;;;;;;;;;;10542066;28;19945;-70
2022/10/21 12:16:16;;;;;;;;;;;;;;;;;;10539909;28;20276;-70
2022/10/21 12:21:18;;;;;;;;;;;;;;;;;;10541685;28;19924;-70
2022/10/21 12:26:20;;;;;;;;;;;;;;;;;;10541432;28;19924;-70
2022/10/21 12:31:22;;;;;;;;;;;;;;;;;;10540536;28;19924;-70
2022/10/21 12:36:26;;;;;;;;;;;;;;;;;;10540551;28;20364;-70
2022/10/21 12:41:28;;;;;;;;;;;;;;;;;;10541054;28;19977;-69
2022/10/21 12:46:30;;;;;;;;;;;;;;;;;;10539953;28;19924;-69
2022/10/21 12:51:35;;;;;;;;;;;;;;;;;;10538280;28;19978;-69
2022/10/21 12:56:37;;;;;;;;;;;;;;;;;;10539338;28;19924;-69
2022/10/21 13:01:41;;;;;;;;;;;;;;;;;;10537180;28;19924;-69
2022/10/21 13:06:43;;;;;;;;;;;;;;;;;;10539043;28;19970;-69
2022/10/21 13:11:45;;;;;;;;;;;;;;;;;;10539377;28;19970;-69
2022/10/21 13:16:47;;;;;;;;;;;;;;;;;;10537644;28;19924;-69
2022/10/21 13:21:51;;;;;;;;;;;;;;;;;;10536849;28;20436;-69
2022/10/21 13:26:53;;;;;;;;;;;;;;;;;;10539180;28;19970;-70
2022/10/21 13:31:55;;;;;;;;;;;;;;;;;;10535862;28;19924;-70
2022/10/21 13:36:57;;;;;;;;;;;;;;;;;;10535027;28;20385;-70
2022/10/21 13:41:59;;;;;;;;;;;;;;;;;;10534116;28;19924;-67
2022/10/21 13:47:01;;;;;;;;;;;;;;;;;;10537924;28;19928;-67
2022/10/21 13:52:04;;;;;;;;;;;;;;;;;;10538442;28;19977;-67
2022/10/21 13:57:06;;;;;;;;;;;;;;;;;;10537930;28;19924;-68
2022/10/21 14:02:08;;;;;;;;;;;;;;;;;;10538007;28;19925;-67
2022/10/21 14:07:14;;;;;;;;;;;;;;;;;;10547000;28;19969;-67
2022/10/21 14:12:16;;;;;;;;;;;;;;;;;;10546795;28;19924;-67
2022/10/21 14:17:18;;;;;;;;;;;;;;;;;;10544650;28;19925;-67
2022/10/21 14:22:20;;;;;;;;;;;;;;;;;;10545653;28;19953;-67
2022/10/21 14:27:22;;;;;;;;;;;;;;;;;;10544636;28;19954;-67
2022/10/21 14:32:24;;;;;;;;;;;;;;;;;;10552796;22;19971;-67
2022/10/21 14:37:26;;;;;;;;;;;;;;;;;;10545800;28;19923;-68
2022/10/21 14:42:28;;;;;;;;;;;;;;;;;;10544924;28;20366;-67
2022/10/21 14:47:30;;;;;;;;;;;;;;;;;;10524952;28;19928;-67
2022/10/21 14:52:34;;;;;;;;;;;;;;;;;;10545340;28;19928;-67
2022/10/21 14:57:36;;;;;;;;;;;;;;;;;;10544985;28;19928;-67
2022/10/21 15:02:38;;;;;;;;;;;;;;;;;;10543619;28;20006;-68
2022/10/21 15:07:40;;;;;;;;;;;;;;;;;;10543223;28;19931;-67
2022/10/21 15:12:42;;;;;;;;;;;;;;;;;;10543432;28;19985;-70
2022/10/21 15:17:44;;;;;;;;;;;;;;;;;;10542078;28;19975;-70
2022/10/21 15:22:46;;;;;;;;;;;;;;;;;;10542685;28;19924;-70
2022/10/21 15:27:49;;;;;;;;;;;;;;;;;;10543058;28;20283;-70
2022/10/21 15:32:51;;;;;;;;;;;;;;;;;;10541290;28;19929;-70
2022/10/21 15:37:53;;;;;;;;;;;;;;;;;;10528236;28;19973;-70
2022/10/21 15:42:55;;;;;;;;;;;;;;;;;;10541279;28;19924;-70
2022/10/21 15:47:57;;;;;;;;;;;;;;;;;;10542842;28;19969;-70
2022/10/21 15:52:59;;;;;;;;;;;;;;;;;;10542886;28;19924;-70
2022/10/21 15:58:01;;;;;;;;;;;;;;;;;;10541483;28;19931;-70
2022/10/21 16:03:03;;;;;;;;;;;;;;;;;;10540828;28;20436;-70
2022/10/21 16:08:05;;;;;;;;;;;;;;;;;;10538496;28;19978;-70
2022/10/21 16:13:08;;;;;;;;;;;;;;;;;;10541393;28;19970;-70
2022/10/21 16:18:10;;;;;;;;;;;;;;;;;;10542025;28;19928;-70
2022/10/21 16:23:12;;;;;;;;;;;;;;;;;;10541649;28;19924;-70
2022/10/21 16:28:14;;;;;;;;;;;;;;;;;;10540708;28;19977;-70
2022/10/21 16:33:16;;;;;;;;;;;;;;;;;;10539928;28;19923;-70
2022/10/21 16:38:18;;;;;;;;;;;;;;;;;;10541231;28;19924;-70
2022/10/21 16:43:21;;;;;;;;;;;;;;;;;;10541134;28;19924;-70
2022/10/21 16:48:23;;;;;;;;;;;;;;;;;;10540318;28;20378;-70
2022/10/21 16:53:27;;;;;;;;;;;;;;;;;;10539521;28;19924;-70
2022/10/21 16:58:29;;;;;;;;;;;;;;;;;;10541106;28;19924;-70
2022/10/21 17:03:32;;;;;;;;;;;;;;;;;;10540126;28;19924;-70
2022/10/21 17:08:34;;;;;;;;;;;;;;;;;;10540469;28;19978;-70
2022/10/21 17:13:36;;;;;;;;;;;;;;;;;;10540472;28;19928;-71
2022/10/21 17:18:38;;;;;;;;;;;;;;;;;;10540326;28;19950;-70
2022/10/21 17:23:40;;;;;;;;;;;;;;;;;;10540291;28;19974;-70
2022/10/21 17:28:42;;;;;;;;;;;;;;;;;;10539481;28;20420;-70
2022/10/21 17:33:44;;;;;;;;;;;;;;;;;;10545392;28;19928;-70
2022/10/21 17:38:46;;;;;;;;;;;;;;;;;;10545025;28;19924;-70
2022/10/21 17:43:48;;;;;;;;;;;;;;;;;;10547956;28;19977;-70
2022/10/21 17:48:50;;;;;;;;;;;;;;;;;;10547891;28;19924;-70
2022/10/21 17:53:52;;;;;;;;;;;;;;;;;;10546943;28;19924;-70
2022/10/21 17:58:54;;;;;;;;;;;;;;;;;;10546719;28;20299;-70
2022/10/21 18:03:57;;;;;;;;;;;;;;;;;;10546528;28;20383;-70
2022/10/21 18:08:59;;;;;;;;;;;;;;;;;;10546917;28;19924;-70
2022/10/21 18:14:01;;;;;;;;;;;;;;;;;;10546797;28;19986;-70
2022/10/21 18:19:03;;;;;;;;;;;;;;;;;;10546013;28;19989;-70
2022/10/21 18:24:05;;;;;;;;;;;;;;;;;;10546320;28;19928;-70
2022/10/21 18:29:12;;;;;;;;;;;;;;;;;;10546148;28;19930;-70
2022/10/21 18:34:14;;;;;;;;;;;;;;;;;;10547256;28;19974;-70
2022/10/21 18:39:16;;;;;;;;;;;;;;;;;;10545766;28;19924;-70
2022/10/21 18:44:18;;;;;;;;;;;;;;;;;;10545642;28;19924;-70
2022/10/21 18:49:20;;;;;;;;;;;;;;;;;;10544093;28;20362;-70
2022/10/21 18:54:24;;;;;;;;;;;;;;;;;;10526424;28;20138;-71
2022/10/21 18:59:26;;;;;;;;;;;;;;;;;;10544433;28;19924;-70
2022/10/21 19:04:28;;;;;;;;;;;;;;;;;;10544752;28;19924;-70
2022/10/21 19:09:30;;;;;;;;;;;;;;;;;;10543841;28;19924;-70
2022/10/21 19:14:32;;;;;;;;;;;;;;;;;;10544383;28;19924;-70
2022/10/21 19:19:34;;;;;;;;;;;;;;;;;;10543480;28;19977;-70
2022/10/21 19:24:40;;;;;;;;;;;;;;;;;;10543505;28;20397;-70
2022/10/21 19:29:42;;;;;;;;;;;;;;;;;;10543626;28;19970;-70
2022/10/21 19:34:44;;;;;;;;;;;;;;;;;;10542997;28;19973;-70
2022/10/21 19:39:46;;;;;;;;;;;;;;;;;;10511609;28;20372;-70
2022/10/21 19:44:48;;;;;;;;;;;;;;;;;;10500581;28;19970;-70
2022/10/21 19:49:50;;;;;;;;;;;;;;;;;;10500269;28;20410;-70
2022/10/21 19:54:52;;;;;;;;;;;;;;;;;;10502379;28;19925;-70
2022/10/21 19:59:54;;;;;;;;;;;;;;;;;;10498985;28;19932;-70
2022/10/21 20:04:56;;;;;;;;;;;;;;;;;;10499799;28;19924;-71
2022/10/21 20:09:58;;;;;;;;;;;;;;;;;;10501265;28;19932;-71
2022/10/21 20:15:00;;;;;;;;;;;;;;;;;;10499945;28;20272;-70
2022/10/21 20:20:02;;;;;;;;;;;;;;;;;;10499900;28;19929;-70
2022/10/21 20:25:04;;;;;;;;;;;;;;;;;;10500250;28;19989;-70
2022/10/21 20:30:07;;;;;;;;;;;;;;;;;;10499848;28;20424;-70
2022/10/21 20:35:09;;;;;;;;;;;;;;;;;;10498892;28;19951;-70
2022/10/21 20:40:11;;;;;;;;;;;;;;;;;;10498348;28;19978;-70
2022/10/21 20:45:13;;;;;;;;;;;;;;;;;;10490732;28;19925;-70
2022/10/21 20:50:15;;;;;;;;;;;;;;;;;;10498227;28;19980;-70
2022/10/21 20:55:17;;;;;;;;;;;;;;;;;;10499056;28;19924;-70
2022/10/21 21:00:19;;;;;;;;;;;;;;;;;;10498960;28;19994;-70
2022/10/21 21:05:21;;;;;;;;;;;;;;;;;;10498085;28;19978;-70
2022/10/21 21:10:23;;;;;;;;;;;;;;;;;;10496915;28;20280;-70
2022/10/21 21:15:26;;;;;;;;;;;;;;;;;;10505134;28;19994;-70
2022/10/21 21:20:28;;;;;;;;;;;;;;;;;;10505554;28;19928;-71
2022/10/21 21:25:30;;;;;;;;;;;;;;;;;;10506791;28;19974;-70
2022/10/21 21:30:32;;;;;;;;;;;;;;;;;;10506102;28;19924;-71
2022/10/21 21:35:34;;;;;;;;;;;;;;;;;;10539371;28;20379;-70
2022/10/21 21:40:36;;;;;;;;;;;;;;;;;;10547786;28;19977;-70
2022/10/21 21:45:38;;;;;;;;;;;;;;;;;;10546826;28;20375;-70
2022/10/21 21:50:40;;;;;;;;;;;;;;;;;;10546985;28;20328;-70
2022/10/21 21:55:42;;;;;;;;;;;;;;;;;;10547525;28;19978;-70
2022/10/21 22:00:44;;;;;;;;;;;;;;;;;;10545920;28;20447;-70
2022/10/21 22:05:46;;;;;;;;;;;;;;;;;;10546684;28;19977;-70
2022/10/21 22:10:48;;;;;;;;;;;;;;;;;;10546329;28;19924;-70
2022/10/21 22:15:50;;;;;;;;;;;;;;;;;;10546054;28;20321;-70
2022/10/21 22:20:53;;;;;;;;;;;;;;;;;;10546529;28;19928;-70
2022/10/21 22:25:55;;;;;;;;;;;;;;;;;;10544486;28;19981;-70
2022/10/21 22:30:57;;;;;;;;;;;;;;;;;;10546049;28;19974;-69
2022/10/21 22:35:59;;;;;;;;;;;;;;;;;;10545212;28;19924;-70
2022/10/21 22:41:01;;;;;;;;;;;;;;;;;;10543827;28;20353;-70
2022/10/21 22:46:03;;;;;;;;;;;;;;;;;;10545543;28;19924;-70
2022/10/21 22:51:22;;;;;;;;;;;;;;;;;;10545333;28;19925;-70
2022/10/21 22:56:24;;;;;;;;;;;;;;;;;;10543371;28;20383;-70
2022/10/21 23:01:29;;;;;;;;;;;;;;;;;;10544262;28;20341;-70
2022/10/21 23:06:32;;;;;;;;;;;;;;;;;;10542167;28;20382;-70
2022/10/21 23:11:34;;;;;;;;;;;;;;;;;;10543001;28;19924;-69
2022/10/21 23:16:36;;;;;;;;;;;;;;;;;;10543671;28;19985;-69
2022/10/21 23:21:40;;;;;;;;;;;;;;;;;;10544117;28;20015;-70
2022/10/21 23:26:42;;;;;;;;;;;;;;;;;;10541353;28;20330;-70
2022/10/21 23:31:44;;;;;;;;;;;;;;;;;;10543420;28;19924;-70
2022/10/21 23:36:46;;;;;;;;;;;;;;;;;;10542105;28;19924;-69
2022/10/21 23:41:48;;;;;;;;;;;;;;;;;;10541085;28;20345;-69
2022/10/21 23:46:50;;;;;;;;;;;;;;;;;;10541929;28;19978;-70
2022/10/21 23:51:52;;;;;;;;;;;;;;;;;;10543016;28;19978;-69
2022/10/21 23:56:54;;;;;;;;;;;;;;;;;;10542170;28;19928;-69
